createdAt,value
2022-12-19T00:01:49.722Z,29.80
2022-12-19T00:04:19.891Z,29.35
2022-12-19T00:06:47.353Z,27.52
2022-12-19T00:09:14.604Z,31.88
2022-12-19T00:11:43.094Z,32.17
2022-12-19T00:14:11.984Z,28.25
2022-12-19T00:16:40.144Z,30.47
2022-12-19T00:19:07.885Z,32.33
2022-12-19T00:21:35.747Z,32.45
2022-12-19T00:24:16.945Z,31.65
2022-12-19T00:26:47.787Z,33.92
2022-12-19T00:29:15.264Z,36.33
2022-12-19T00:31:45.692Z,29.75
2022-12-19T00:34:15.482Z,36.08
2022-12-19T00:36:43.180Z,29.60
2022-12-19T00:39:11.715Z,31.73
2022-12-19T00:41:42.118Z,34.90
2022-12-19T00:46:39.118Z,32.65
2022-12-19T00:49:06.453Z,35.47
2022-12-19T00:51:36.410Z,34.22
2022-12-19T00:54:06.637Z,36.05
2022-12-19T00:56:37.697Z,33.53
2022-12-19T00:59:07.321Z,34.97
2022-12-19T01:01:37.773Z,33.80
2022-12-19T01:06:58.100Z,36.05
2022-12-19T01:09:33.358Z,37.58
2022-12-19T01:12:19.310Z,35.78
2022-12-19T01:14:51.017Z,38.35
2022-12-19T01:17:18.368Z,35.63
2022-12-19T01:19:45.732Z,36.17
2022-12-19T01:22:13.969Z,35.22
2022-12-19T01:24:41.634Z,33.58
2022-12-19T01:27:09.218Z,36.50
2022-12-19T01:29:45.541Z,34.03
2022-12-19T01:32:21.637Z,33.33
2022-12-19T01:34:49.473Z,33.42
2022-12-19T01:37:16.849Z,38.72
2022-12-19T01:39:44.896Z,34.33
2022-12-19T01:42:23.202Z,36.10
2022-12-19T01:45:13.323Z,33.03
2022-12-19T01:48:02.431Z,31.83
2022-12-19T01:50:32.765Z,33.88
2022-12-19T01:53:01.821Z,37.55
2022-12-19T01:55:31.030Z,43.63
2022-12-19T01:58:01.584Z,36.42
2022-12-19T02:00:28.986Z,34.28
2022-12-19T02:03:06.109Z,39.50
2022-12-19T02:05:35.470Z,34.75
2022-12-19T02:08:03.912Z,35.88
2022-12-19T02:10:32.633Z,34.92
2022-12-19T02:13:00.359Z,37.72
2022-12-19T02:15:33.123Z,41.58
2022-12-19T02:18:21.327Z,34.88
2022-12-19T02:21:27.167Z,37.40
2022-12-19T02:24:04.605Z,35.00
2022-12-19T02:27:11.862Z,36.58
2022-12-19T02:30:04.668Z,41.05
2022-12-19T02:32:52.988Z,33.25
2022-12-19T02:35:53.208Z,38.47
2022-12-19T02:38:34.033Z,37.55
2022-12-19T02:42:01.227Z,33.55
2022-12-19T02:44:43.055Z,35.45
2022-12-19T02:47:11.851Z,34.78
2022-12-19T02:49:39.978Z,37.65
2022-12-19T02:52:20.526Z,37.10
2022-12-19T02:54:53.460Z,42.25
2022-12-19T02:57:35.869Z,38.80
2022-12-19T03:00:18.143Z,42.70
2022-12-19T03:03:02.261Z,46.75
2022-12-19T03:06:04.654Z,48.25
2022-12-19T03:08:44.108Z,43.28
2022-12-19T03:11:14.774Z,47.08
2022-12-19T03:14:22.939Z,50.90
2022-12-19T03:16:55.919Z,48.22
2022-12-19T03:19:23.685Z,49.53
2022-12-19T03:21:51.081Z,54.00
2022-12-19T03:24:19.327Z,50.97
2022-12-19T03:26:58.128Z,55.80
2022-12-19T03:29:28.538Z,52.22
2022-12-19T03:31:59.582Z,50.33
2022-12-19T03:34:37.110Z,54.55
2022-12-19T03:37:07.752Z,52.80
2022-12-19T03:42:23.199Z,56.47
2022-12-19T03:44:51.739Z,53.80
2022-12-19T03:47:27.521Z,54.22
2022-12-19T03:49:55.076Z,62.28
2022-12-19T03:52:29.026Z,60.72
2022-12-19T03:55:23.034Z,61.55
2022-12-19T03:57:56.345Z,70.35
2022-12-19T04:00:25.992Z,59.45
2022-12-19T04:02:57.949Z,67.28
2022-12-19T04:05:27.038Z,66.18
2022-12-19T04:07:58.747Z,59.60
2022-12-19T04:10:27.985Z,56.00
2022-12-19T04:13:02.773Z,65.78
2022-12-19T04:15:51.773Z,67.68
2022-12-19T04:18:20.221Z,67.97
2022-12-19T04:21:17.688Z,66.82
2022-12-19T04:23:51.325Z,69.72
2022-12-19T04:26:21.383Z,67.43
2022-12-19T04:28:53.130Z,65.05
2022-12-19T04:31:21.304Z,75.00
2022-12-19T04:33:48.598Z,68.65
2022-12-19T04:36:16.035Z,70.95
2022-12-19T04:38:43.401Z,71.28
2022-12-19T04:41:10.728Z,76.38
2022-12-19T04:43:38.054Z,69.75
2022-12-19T04:46:06.733Z,72.55
2022-12-19T04:48:36.484Z,71.63
2022-12-19T04:51:03.955Z,87.32
2022-12-19T04:53:32.641Z,81.70
2022-12-19T04:56:01.728Z,76.70
2022-12-19T04:58:29.181Z,78.72
2022-12-19T05:01:07.890Z,79.85
2022-12-19T05:03:36.731Z,81.00
2022-12-19T05:06:10.297Z,85.97
2022-12-19T05:08:39.266Z,83.50
2022-12-19T05:11:08.672Z,85.03
2022-12-19T05:13:36.432Z,84.20
2022-12-19T05:16:08.096Z,90.82
2022-12-19T05:18:36.668Z,82.50
2022-12-19T05:21:06.092Z,88.80
2022-12-19T05:23:33.919Z,93.32
2022-12-19T05:26:02.541Z,95.78
2022-12-19T05:28:30.974Z,97.05
2022-12-19T05:31:07.262Z,95.70
2022-12-19T05:33:35.295Z,96.68
2022-12-19T05:36:05.627Z,89.18
2022-12-19T05:38:32.902Z,83.80
2022-12-19T05:41:00.270Z,94.43
2022-12-19T05:43:28.125Z,86.78
2022-12-19T05:45:55.660Z,85.40
2022-12-19T05:48:22.960Z,86.63
2022-12-19T05:50:50.710Z,94.88
2022-12-19T05:53:21.981Z,85.78
2022-12-19T05:55:53.483Z,86.72
2022-12-19T05:58:21.359Z,96.05
2022-12-19T06:00:48.598Z,99.30
2022-12-19T06:03:16.004Z,92.53
2022-12-19T06:05:43.318Z,99.30
2022-12-19T06:08:11.791Z,99.53
2022-12-19T06:10:39.035Z,100.78
2022-12-19T06:13:06.625Z,109.88
2022-12-19T06:15:33.807Z,109.97
2022-12-19T06:18:01.208Z,104.45
2022-12-19T06:20:28.432Z,119.43
2022-12-19T06:22:55.801Z,103.88
2022-12-19T06:25:23.183Z,105.43
2022-12-19T06:27:50.361Z,104.22
2022-12-19T06:30:17.767Z,84.35
2022-12-19T06:32:44.959Z,96.25
2022-12-19T06:35:12.268Z,87.82
2022-12-19T06:37:39.743Z,90.32
2022-12-19T06:40:07.691Z,87.07
2022-12-19T06:42:34.929Z,82.50
2022-12-19T06:45:02.136Z,93.07
2022-12-19T06:47:29.572Z,93.78
2022-12-19T06:49:56.867Z,101.72
2022-12-19T06:52:24.205Z,91.60
2022-12-19T06:54:51.541Z,94.45
2022-12-19T06:57:18.715Z,93.75
2022-12-19T06:59:45.977Z,81.80
2022-12-19T07:02:27.420Z,84.18
2022-12-19T07:05:00.286Z,80.05
2022-12-19T07:07:29.815Z,89.53
2022-12-19T07:09:57.111Z,76.32
2022-12-19T07:12:24.416Z,74.30
2022-12-19T07:14:53.529Z,80.65
2022-12-19T07:17:22.828Z,71.25
2022-12-19T07:19:50.644Z,76.93
2022-12-19T07:22:17.961Z,78.68
2022-12-19T07:24:45.814Z,68.30
2022-12-19T07:27:14.186Z,76.28
2022-12-19T07:29:41.452Z,68.82
2022-12-19T07:32:08.707Z,83.53
2022-12-19T07:34:35.882Z,61.65
2022-12-19T07:37:03.226Z,66.97
2022-12-19T07:39:30.591Z,62.85
2022-12-19T07:41:57.841Z,73.57
2022-12-19T07:44:36.005Z,66.72
2022-12-19T07:47:05.449Z,60.17
2022-12-19T07:49:32.784Z,62.35
2022-12-19T07:52:00.175Z,54.05
2022-12-19T07:54:27.471Z,56.17
2022-12-19T07:56:54.888Z,53.63
2022-12-19T07:59:28.589Z,61.95
2022-12-19T08:01:58.085Z,53.15
2022-12-19T08:04:26.639Z,50.58
2022-12-19T08:06:54.191Z,51.63
2022-12-19T08:09:21.413Z,59.03
2022-12-19T08:11:48.982Z,49.10
2022-12-19T08:14:16.137Z,50.38
2022-12-19T08:17:18.198Z,55.75
2022-12-19T08:19:31.974Z,46.80
2022-12-19T08:21:59.266Z,57.65
2022-12-19T08:24:26.495Z,41.80
2022-12-19T08:26:53.939Z,43.58
2022-12-19T08:29:21.442Z,47.55
2022-12-19T08:31:48.777Z,49.72
2022-12-19T08:34:15.951Z,47.53
2022-12-19T08:36:43.296Z,48.72
2022-12-19T08:39:11.469Z,50.28
2022-12-19T08:41:42.955Z,51.53
2022-12-19T08:44:13.746Z,50.85
2022-12-19T08:46:46.570Z,52.17
2022-12-19T08:49:16.939Z,43.40
2022-12-19T08:51:44.173Z,44.90
2022-12-19T08:54:12.370Z,41.92
2022-12-19T08:56:41.535Z,43.45
2022-12-19T08:59:16.088Z,44.15
2022-12-19T09:01:52.475Z,39.13
2022-12-19T09:05:58.069Z,44.63
2022-12-19T09:07:07.559Z,40.25
2022-12-19T09:09:34.728Z,47.38
2022-12-19T09:12:01.968Z,39.40
2022-12-19T09:14:33.741Z,45.05
2022-12-19T09:17:02.532Z,43.75
2022-12-19T09:19:32.368Z,41.78
2022-12-19T09:21:59.715Z,43.22
2022-12-19T09:24:27.203Z,41.78
2022-12-19T09:26:54.480Z,33.50
2022-12-19T09:29:22.344Z,37.25
2022-12-19T09:31:55.412Z,43.55
2022-12-19T09:34:32.980Z,35.95
2022-12-19T09:37:15.785Z,44.40
2022-12-19T09:39:44.091Z,35.95
2022-12-19T09:42:19.799Z,33.13
2022-12-19T09:45:31.805Z,35.35
2022-12-19T09:48:01.855Z,34.83
2022-12-19T09:50:43.952Z,35.45
2022-12-19T09:53:20.060Z,29.20
2022-12-19T09:55:48.344Z,30.05
2022-12-19T09:58:32.611Z,34.95
2022-12-19T10:01:04.985Z,30.15
2022-12-19T10:03:44.554Z,32.03
2022-12-19T10:07:02.569Z,35.67
2022-12-19T10:10:16.582Z,40.88
2022-12-19T10:12:44.230Z,33.63
2022-12-19T10:15:19.507Z,38.45
2022-12-19T10:18:15.423Z,37.50
2022-12-19T10:20:51.365Z,43.17
2022-12-19T10:23:50.563Z,46.88
2022-12-19T10:26:23.438Z,40.72
2022-12-19T10:29:45.134Z,40.05
2022-12-19T10:32:24.399Z,42.17
2022-12-19T10:34:53.380Z,40.60
2022-12-19T10:37:32.691Z,43.58
2022-12-19T10:40:33.122Z,56.55
2022-12-19T10:43:15.252Z,36.80
2022-12-19T10:45:52.415Z,43.35
2022-12-19T10:48:30.284Z,43.55
2022-12-19T10:50:57.738Z,46.20
2022-12-19T10:53:30.337Z,46.25
2022-12-19T10:56:03.122Z,41.97
2022-12-19T10:58:36.265Z,48.15
2022-12-19T11:01:21.611Z,37.28
2022-12-19T11:03:53.186Z,42.78
2022-12-19T11:06:51.866Z,41.85
2022-12-19T11:09:25.300Z,44.67
2022-12-19T11:15:34.463Z,42.35
2022-12-19T11:18:33.229Z,47.88
2022-12-19T11:24:31.917Z,41.45
2022-12-19T11:29:40.173Z,34.10
2022-12-19T11:30:26.146Z,39.60
2022-12-19T11:31:58.413Z,35.08
2022-12-19T11:33:22.697Z,40.05
2022-12-19T11:35:55.990Z,35.03
2022-12-19T11:38:37.521Z,35.78
2022-12-19T11:41:30.792Z,36.03
2022-12-19T11:44:21.815Z,33.28
2022-12-19T11:47:03.734Z,33.58
2022-12-19T11:50:01.528Z,35.72
2022-12-19T11:55:41.227Z,33.83
2022-12-19T11:58:14.070Z,27.60
2022-12-19T12:00:56.847Z,31.42
2022-12-19T12:03:42.761Z,37.47
2022-12-19T12:12:23.144Z,35.28
2022-12-19T12:17:51.915Z,36.40
2022-12-19T12:23:27.172Z,31.27
2022-12-19T12:28:04.409Z,35.35
2022-12-19T12:31:25.894Z,30.52
2022-12-19T12:31:41.758Z,31.55
2022-12-19T12:31:45.495Z,34.22
2022-12-19T12:31:51.535Z,30.52
2022-12-19T12:35:34.265Z,34.05
2022-12-19T12:39:57.717Z,27.88
2022-12-19T12:42:43.518Z,27.10
2022-12-19T12:45:20.665Z,29.15
2022-12-19T12:47:53.247Z,29.42
2022-12-19T12:50:24.308Z,31.83
2022-12-19T12:52:56.012Z,31.95
2022-12-19T12:55:28.842Z,27.52
2022-12-19T12:57:56.213Z,31.80
2022-12-19T13:00:32.203Z,34.85
2022-12-19T13:03:10.775Z,30.70
2022-12-19T13:05:46.123Z,40.17
2022-12-19T13:08:38.657Z,33.70
2022-12-19T13:11:44.118Z,31.17
2022-12-19T13:14:37.085Z,28.65
2022-12-19T13:17:25.827Z,30.35
2022-12-19T13:20:14.860Z,30.55
2022-12-19T13:23:04.912Z,35.80
2022-12-19T13:25:35.504Z,30.42
2022-12-19T13:28:02.760Z,29.02
2022-12-19T13:30:32.411Z,33.22
2022-12-19T13:33:19.608Z,26.60
2022-12-19T13:37:41.028Z,28.45
2022-12-19T13:39:51.037Z,30.38
2022-12-19T13:42:00.028Z,27.23
2022-12-19T13:44:28.249Z,31.05
2022-12-19T13:46:56.859Z,30.67
2022-12-19T13:49:34.559Z,39.65
2022-12-19T13:52:04.573Z,24.67
2022-12-19T13:54:45.489Z,28.73
2022-12-19T13:59:59.696Z,28.90
2022-12-19T14:02:44.272Z,27.42
2022-12-19T14:06:17.424Z,33.20
2022-12-19T14:08:28.872Z,32.92
2022-12-19T14:11:34.695Z,34.38
2022-12-19T14:14:27.449Z,33.03
2022-12-19T14:17:05.050Z,30.25
2022-12-19T14:19:40.061Z,34.90
2022-12-19T14:22:25.470Z,34.28
2022-12-19T14:25:32.063Z,35.85
2022-12-19T14:28:25.620Z,29.02
2022-12-19T14:30:58.025Z,32.38
2022-12-19T14:33:44.778Z,36.15
2022-12-19T14:36:26.251Z,37.97
2022-12-19T14:39:24.397Z,32.47
2022-12-19T14:42:04.070Z,30.77
2022-12-19T14:52:11.702Z,32.35
2022-12-19T14:52:35.647Z,31.92
2022-12-19T14:54:03.586Z,24.70
2022-12-19T14:54:32.220Z,30.40
2022-12-19T14:59:36.911Z,34.47
2022-12-19T15:02:07.148Z,25.77
2022-12-19T15:04:51.789Z,28.98
2022-12-19T15:07:28.736Z,27.85
2022-12-19T15:11:02.548Z,28.30
2022-12-19T15:14:52.117Z,27.98
2022-12-19T15:16:04.458Z,29.02
2022-12-19T15:18:40.048Z,23.65
2022-12-19T15:21:12.966Z,28.73
2022-12-19T15:23:41.049Z,27.60
2022-12-19T15:26:14.381Z,26.38
2022-12-19T15:28:45.853Z,22.33
2022-12-19T15:31:39.218Z,21.45
2022-12-19T15:34:50.221Z,21.90
2022-12-19T15:37:14.829Z,22.00
2022-12-19T15:39:43.466Z,22.30
2022-12-19T15:42:26.411Z,21.63
2022-12-19T15:44:56.437Z,20.67
2022-12-19T15:47:36.979Z,21.63
2022-12-19T15:50:23.232Z,20.70
2022-12-19T15:52:54.325Z,20.77
2022-12-19T15:55:24.427Z,20.63
2022-12-19T15:57:55.941Z,20.05
2022-12-19T16:00:25.745Z,21.58
2022-12-19T16:03:23.480Z,19.27
2022-12-19T16:05:41.821Z,20.52
2022-12-19T16:08:18.239Z,18.58
2022-12-19T16:10:54.504Z,18.65
2022-12-19T16:13:27.404Z,21.05
2022-12-19T16:15:55.729Z,18.70
2022-12-19T16:18:23.033Z,21.08
2022-12-19T16:20:50.636Z,21.98
2022-12-19T16:23:19.301Z,24.20
2022-12-19T16:25:52.283Z,18.83
2022-12-19T16:28:31.063Z,24.17
2022-12-19T16:31:13.963Z,24.52
2022-12-19T16:33:46.885Z,23.08
2022-12-19T16:36:14.550Z,22.58
2022-12-19T16:38:41.867Z,26.42
2022-12-19T16:41:18.012Z,25.05
2022-12-19T16:43:45.741Z,23.25
2022-12-19T16:46:31.336Z,23.60
2022-12-19T16:48:58.807Z,22.02
2022-12-19T16:51:28.052Z,20.35
2022-12-19T16:53:58.901Z,23.85
2022-12-19T16:56:55.389Z,25.55
2022-12-19T16:59:29.193Z,25.70
2022-12-19T17:01:57.333Z,24.95
2022-12-19T17:04:26.304Z,21.92
2022-12-19T17:06:54.443Z,18.13
2022-12-19T17:09:23.995Z,20.25
2022-12-19T17:11:58.187Z,21.77
2022-12-19T17:14:27.492Z,23.00
2022-12-19T17:16:56.004Z,21.15
2022-12-19T17:19:29.279Z,22.63
2022-12-19T17:21:56.607Z,22.63
2022-12-19T17:24:23.840Z,20.88
2022-12-19T17:26:52.356Z,16.73
2022-12-19T17:29:19.747Z,19.60
2022-12-19T17:31:47.968Z,17.92
2022-12-19T17:34:23.019Z,16.52
2022-12-19T17:36:50.308Z,20.63
2022-12-19T17:39:26.173Z,20.17
2022-12-19T17:41:57.336Z,18.42
2022-12-19T17:44:24.599Z,20.00
2022-12-19T17:46:53.009Z,17.98
2022-12-19T17:49:29.653Z,18.85
2022-12-19T17:51:58.460Z,19.80
2022-12-19T17:54:26.923Z,20.90
2022-12-19T17:56:55.341Z,16.35
2022-12-19T17:59:22.818Z,18.88
2022-12-19T18:01:50.620Z,22.95
2022-12-19T18:04:20.799Z,17.73
2022-12-19T18:06:49.572Z,21.08
2022-12-19T18:09:24.768Z,16.27
2022-12-19T18:11:52.889Z,15.30
2022-12-19T18:14:20.594Z,18.10
2022-12-19T18:16:50.566Z,16.17
2022-12-19T18:19:19.860Z,19.23
2022-12-19T18:21:47.602Z,19.70
2022-12-19T18:24:16.632Z,14.50
2022-12-19T18:26:45.121Z,17.45
2022-12-19T18:29:14.382Z,17.33
2022-12-19T18:31:48.336Z,19.52
2022-12-19T18:34:24.590Z,17.10
2022-12-19T18:36:53.106Z,18.55
2022-12-19T18:39:23.611Z,19.38
2022-12-19T18:41:52.639Z,17.08
2022-12-19T18:44:22.552Z,17.85
2022-12-19T18:46:51.149Z,21.95
2022-12-19T18:49:19.191Z,15.80
2022-12-19T18:51:46.867Z,17.63
2022-12-19T18:54:17.164Z,18.30
2022-12-19T18:56:44.939Z,14.93
2022-12-19T18:59:12.435Z,16.27
2022-12-19T19:01:43.727Z,15.80
2022-12-19T19:04:13.411Z,17.50
2022-12-19T19:06:46.728Z,15.73
2022-12-19T19:09:19.370Z,16.42
2022-12-19T19:11:49.210Z,14.70
2022-12-19T19:14:16.628Z,16.70
2022-12-19T19:16:43.997Z,17.50
2022-12-19T19:19:14.785Z,14.23
2022-12-19T19:24:20.223Z,15.77
2022-12-19T19:26:47.943Z,13.93
2022-12-19T19:29:15.283Z,18.35
2022-12-19T19:31:47.625Z,17.00
2022-12-19T19:34:27.536Z,18.13
2022-12-19T19:36:57.736Z,14.57
2022-12-19T19:39:25.202Z,16.73
2022-12-19T19:41:53.583Z,15.35
2022-12-19T19:44:20.915Z,16.38
2022-12-19T19:46:48.872Z,15.32
2022-12-19T19:49:16.294Z,12.90
2022-12-19T19:51:43.630Z,14.60
2022-12-19T19:54:11.297Z,12.93
2022-12-19T19:56:38.791Z,15.40
2022-12-19T19:59:06.370Z,13.73
2022-12-19T20:01:34.250Z,13.27
2022-12-19T20:04:01.786Z,16.30
2022-12-19T20:06:29.085Z,16.83
2022-12-19T20:08:56.409Z,14.13
2022-12-19T20:11:23.686Z,12.20
2022-12-19T20:13:51.009Z,12.00
2022-12-19T20:16:19.207Z,14.55
2022-12-19T20:18:51.823Z,11.98
2022-12-19T20:21:20.604Z,16.05
2022-12-19T20:23:50.831Z,14.40
2022-12-19T20:26:18.673Z,10.65
2022-12-19T20:28:50.368Z,13.32
2022-12-19T20:31:19.585Z,12.35
2022-12-19T20:33:48.572Z,12.98
2022-12-19T20:36:16.806Z,17.35
2022-12-19T20:38:44.093Z,15.90
2022-12-19T20:41:11.633Z,12.32
2022-12-19T20:43:39.531Z,10.77
2022-12-19T20:46:14.000Z,14.35
2022-12-19T20:48:42.041Z,12.80
2022-12-19T20:51:12.528Z,11.13
2022-12-19T20:53:41.720Z,9.93
2022-12-19T20:56:13.197Z,11.88
2022-12-19T20:58:40.617Z,9.65
2022-12-19T21:01:26.892Z,9.75
2022-12-19T21:03:54.492Z,13.18
2022-12-19T21:06:25.331Z,10.77
2022-12-19T21:11:21.363Z,11.27
2022-12-19T21:13:48.707Z,12.55
2022-12-19T21:16:19.142Z,12.57
2022-12-19T21:18:47.862Z,13.43
2022-12-19T21:21:24.387Z,9.45
2022-12-19T21:23:53.182Z,11.32
2022-12-19T21:26:22.806Z,9.38
2022-12-19T21:28:50.729Z,9.38
2022-12-19T21:31:21.424Z,7.93
2022-12-19T21:36:20.272Z,8.50
2022-12-19T21:41:19.031Z,9.20
2022-12-19T21:43:53.881Z,9.50
2022-12-19T21:46:30.237Z,9.07
2022-12-19T21:48:58.120Z,14.50
2022-12-19T21:51:28.885Z,7.38
2022-12-19T21:56:40.159Z,7.43
2022-12-19T21:59:12.747Z,8.50
2022-12-19T22:01:41.663Z,10.20
2022-12-19T22:04:20.371Z,7.20
2022-12-19T22:06:49.148Z,8.35
2022-12-19T22:09:19.395Z,7.95
2022-12-19T22:11:47.019Z,5.07
2022-12-19T22:14:16.157Z,7.82
2022-12-19T22:16:43.959Z,6.80
2022-12-19T22:19:15.066Z,10.23
2022-12-19T22:21:42.995Z,6.93
2022-12-19T22:24:12.532Z,9.82
2022-12-19T22:26:40.441Z,6.97
2022-12-19T22:29:11.249Z,8.68
2022-12-19T22:34:15.637Z,8.20
2022-12-19T22:36:44.040Z,6.90
2022-12-19T22:39:16.605Z,8.35
2022-12-19T22:41:44.472Z,7.65
2022-12-19T22:44:20.344Z,7.60
2022-12-19T22:46:47.903Z,5.50
2022-12-19T22:49:16.151Z,7.35
2022-12-19T22:51:44.380Z,5.22
2022-12-19T22:54:14.873Z,4.85
2022-12-19T22:56:42.376Z,5.80
2022-12-19T22:59:12.575Z,5.75
2022-12-19T23:01:43.336Z,8.23
2022-12-19T23:04:14.126Z,6.80
2022-12-19T23:06:41.664Z,6.55
2022-12-19T23:09:12.821Z,5.20
2022-12-19T23:11:42.663Z,8.60
2022-12-19T23:14:14.692Z,6.13
2022-12-19T23:16:43.411Z,8.30
2022-12-19T23:19:12.585Z,8.48
2022-12-19T23:21:39.821Z,6.65
2022-12-19T23:24:08.117Z,6.90
2022-12-19T23:26:37.740Z,6.65
2022-12-19T23:29:08.173Z,6.32
2022-12-19T23:31:38.769Z,5.53
2022-12-19T23:34:06.193Z,5.40
2022-12-19T23:39:20.796Z,5.95
2022-12-19T23:41:48.582Z,6.70
2022-12-19T23:44:15.959Z,6.10
2022-12-19T23:46:43.215Z,10.10
2022-12-19T23:49:10.622Z,7.05
2022-12-19T23:51:37.980Z,6.03
2022-12-19T23:54:08.804Z,5.55
2022-12-19T23:56:36.482Z,6.35
2022-12-19T23:59:04.002Z,9.20
